Time;durP1;ratioP1;P1;durP2;ratioP2;P2;SDS_P1;SDS_P2;PMS_P1;PMS_P2;Temp;Humidity;BMP_temperature;BMP_pressure;BME280_temperature;BME280_humidity;BME280_pressure;Samples;Min_cycle;Max_cycle;Signal;HPM_P1;HPM_P2
2023/08/28 00:02:00;;;;;;;3.10;0.50;;;;;;;15.76;73.01;100780.34;5046794;28;20041;-74
2023/08/28 00:04:28;;;;;;;1.58;0.55;;;;;;;15.76;73.09;100777.72;5036213;28;20155;-74
2023/08/28 00:06:55;;;;;;;5.82;0.70;;;;;;;15.74;73.11;100768.09;5037965;28;20425;-74
2023/08/28 00:09:22;;;;;;;1.23;0.70;;;;;;;15.74;73.20;100768.09;5036360;28;20056;-74
2023/08/28 00:11:49;;;;;;;3.53;0.50;;;;;;;15.73;73.19;100757.63;5038291;28;20053;-74
2023/08/28 00:14:16;;;;;;;2.28;0.57;;;;;;;15.73;73.33;100757.63;5034031;28;20045;-73
2023/08/28 00:16:43;;;;;;;2.13;0.68;;;;;;;15.71;73.31;100755.06;5037529;28;20064;-74
2023/08/28 00:19:10;;;;;;;1.02;0.93;;;;;;;15.68;73.17;100743.75;5034379;28;20056;-73
2023/08/28 00:21:38;;;;;;;1.67;0.60;;;;;;;15.71;73.45;100741.03;5034541;28;20049;-73
2023/08/28 00:24:06;;;;;;;2.40;1.00;;;;;;;15.69;73.42;100741.09;5038368;28;20045;-73
2023/08/28 00:26:33;;;;;;;1.17;0.60;;;;;;;15.69;73.39;100745.50;5036750;28;20049;-73
2023/08/28 00:29:00;;;;;;;0.77;0.70;;;;;;;15.69;73.68;100742.88;5035291;28;20061;-73
2023/08/28 00:31:27;;;;;;;1.90;0.60;;;;;;;15.60;73.36;100728.25;5036011;28;20049;-74
2023/08/28 00:33:54;;;;;;;2.40;0.60;;;;;;;15.67;73.42;100731.50;5034875;28;20052;-74
2023/08/28 00:36:21;;;;;;;9.98;1.63;;;;;;;15.66;73.52;100728.00;5031462;28;20048;-73
2023/08/28 00:38:49;;;;;;;3.00;0.55;;;;;;;15.65;73.55;100733.31;5032874;28;20049;-73
2023/08/28 00:41:16;;;;;;;1.08;0.70;;;;;;;15.65;73.60;100741.22;5034112;28;20045;-74
2023/08/28 00:43:43;;;;;;;1.88;0.50;;;;;;;15.61;73.59;100723.84;5035121;28;20045;-74
2023/08/28 00:46:10;;;;;;;1.50;0.90;;;;;;;15.62;73.48;100725.56;5035744;28;20049;-73
2023/08/28 00:48:38;;;;;;;1.95;0.50;;;;;;;15.62;73.56;100728.19;5036605;28;20044;-73
2023/08/28 00:51:06;;;;;;;3.85;0.60;;;;;;;15.62;73.69;100717.66;5033656;28;20085;-73
2023/08/28 00:53:33;;;;;;;2.58;0.60;;;;;;;15.62;73.73;100722.91;5033716;28;20049;-73
2023/08/28 00:56:01;;;;;;;1.17;0.40;;;;;;;15.59;73.64;100713.38;5036821;28;20050;-74
2023/08/28 00:58:29;;;;;;;1.77;0.60;;;;;;;15.60;73.85;100724.78;5037877;28;20064;-74
2023/08/28 01:00:56;;;;;;;2.67;0.55;;;;;;;15.59;73.78;100717.78;5035040;28;20469;-73
2023/08/28 01:03:23;;;;;;;5.53;0.60;;;;;;;15.58;73.65;100727.47;5034805;28;20053;-79
2023/08/28 01:06:01;;;;;;;1.52;0.50;;;;;;;15.57;73.84;100725.75;5041889;28;20053;-79
2023/08/28 01:08:34;;;;;;;1.75;0.50;;;;;;;15.56;73.95;100729.28;5041571;28;20056;-79
2023/08/28 01:11:11;;;;;;;4.15;0.60;;;;;;;15.48;73.58;100724.34;5047085;28;20048;-70
2023/08/28 01:13:46;;;;;;;2.20;0.75;;;;;;;15.56;73.92;100733.69;5035506;28;20140;-70
2023/08/28 01:16:15;;;;;;;1.83;0.82;;;;;;;15.55;73.87;100729.38;5032579;28;20053;-70
2023/08/28 01:18:42;;;;;;;1.42;0.80;;;;;;;15.56;74.19;100731.06;5035533;28;20053;-70
2023/08/28 01:21:10;;;;;;;0.60;0.50;;;;;;;15.56;74.23;100734.56;5032322;28;20045;-70
2023/08/28 01:23:41;;;;;;;0.73;0.65;;;;;;;15.56;74.41;100731.06;5030807;28;20041;-69
2023/08/28 01:26:09;;;;;;;1.60;0.60;;;;;;;15.51;74.42;100729.50;5035734;28;20051;-70
2023/08/28 01:28:36;;;;;;;2.95;0.50;;;;;;;15.57;74.45;100736.28;5033607;28;20049;-69
2023/08/28 01:31:05;;;;;;;1.90;0.60;;;;;;;15.58;74.74;100726.59;5035481;28;20045;-69
2023/08/28 01:33:33;;;;;;;4.88;0.68;;;;;;;15.58;74.85;100727.47;5034558;28;20049;-70
2023/08/28 01:36:07;;;;;;;5.15;0.73;;;;;;;15.59;75.33;100729.16;5027114;28;20049;-70
2023/08/28 01:38:40;;;;;;;1.95;0.70;;;;;;;15.60;75.49;100732.69;5036077;28;20488;-70
2023/08/28 01:41:11;;;;;;;0.65;0.60;;;;;;;15.60;75.58;100730.03;5033547;28;20052;-70
2023/08/28 01:43:39;;;;;;;2.67;0.60;;;;;;;15.60;75.51;100732.69;5026692;28;20416;-70
2023/08/28 01:46:06;;;;;;;2.22;0.63;;;;;;;15.62;75.96;100730.81;5034902;28;20392;-70
2023/08/28 01:48:35;;;;;;;5.63;0.70;;;;;;;15.63;75.91;100730.78;5033431;28;20132;-70
2023/08/28 01:51:02;;;;;;;2.45;0.60;;;;;;;15.64;76.06;100736.88;5033379;28;20107;-70
2023/08/28 01:53:29;;;;;;;1.63;0.65;;;;;;;15.65;76.03;100728.94;5035371;28;20582;-70
2023/08/28 01:56:24;;;;;;;2.05;0.68;;;;;;;15.67;76.04;100727.09;5036023;28;20045;-70
2023/08/28 01:58:54;;;;;;;2.67;0.70;;;;;;;15.66;76.04;100725.38;5037670;28;20052;-70
2023/08/28 02:01:21;;;;;;;4.47;0.95;;;;;;;15.67;75.79;100740.25;5034192;28;20049;-70
2023/08/28 02:03:48;;;;;;;2.08;0.70;;;;;;;15.67;75.86;100736.75;5030194;28;20155;-70
2023/08/28 02:06:15;;;;;;;3.17;0.60;;;;;;;15.68;76.13;100739.38;5034806;28;20041;-70
2023/08/28 02:08:42;;;;;;;2.15;0.50;;;;;;;15.69;76.06;100733.19;5033093;28;20045;-70
2023/08/28 02:11:09;;;;;;;6.25;0.60;;;;;;;15.69;76.28;100740.22;4999374;28;20065;-76
2023/08/28 02:13:37;;;;;;;0.90;0.63;;;;;;;15.70;76.32;100736.66;5037490;28;20052;-80
2023/08/28 02:16:05;;;;;;;2.83;0.60;;;;;;;15.71;76.34;100741.03;5049543;28;20491;-80
2023/08/28 02:18:31;;;;;;;2.42;0.52;;;;;;;15.70;76.24;100742.78;5030326;28;20046;-80
2023/08/28 02:21:01;;;;;;;4.05;0.50;;;;;;;15.68;76.54;100730.59;5037889;28;20053;-80
2023/08/28 02:23:28;;;;;;;3.05;0.50;;;;;;;15.73;76.43;100731.28;5035711;28;20087;-70
2023/08/28 02:25:55;;;;;;;2.08;0.65;;;;;;;15.74;76.61;100725.13;5034308;28;20116;-70
2023/08/28 02:28:22;;;;;;;5.22;0.52;;;;;;;15.74;76.67;100727.75;5034618;28;20056;-70
2023/08/28 02:30:50;;;;;;;1.90;0.50;;;;;;;15.76;76.73;100720.63;5032822;28;20049;-70
2023/08/28 02:33:18;;;;;;;3.17;0.50;;;;;;;15.76;76.45;100725.88;5037323;28;20045;-70
2023/08/28 02:35:45;;;;;;;1.15;0.65;;;;;;;15.77;76.65;100732.88;5034658;28;20549;-70
2023/08/28 02:38:12;;;;;;;3.28;0.50;;;;;;;15.77;76.42;100729.38;5035194;28;20652;-70
2023/08/28 02:40:39;;;;;;;3.75;0.65;;;;;;;15.78;76.69;100724.06;5034387;28;20041;-70
2023/08/28 02:43:07;;;;;;;2.13;0.77;;;;;;;15.80;76.70;100729.28;5028685;28;20510;-70
2023/08/28 02:45:35;;;;;;;1.63;0.60;;;;;;;15.80;76.60;100724.84;5027098;28;20058;-70
2023/08/28 02:48:04;;;;;;;5.38;0.85;;;;;;;15.81;76.54;100723.94;5033626;28;20056;-70
2023/08/28 02:50:31;;;;;;;0.98;0.68;;;;;;;15.83;76.49;100721.25;5030668;28;20048;-69
2023/08/28 02:52:58;;;;;;;1.73;0.50;;;;;;;15.83;76.63;100718.59;5039396;28;20059;-70
2023/08/28 02:55:26;;;;;;;2.03;0.50;;;;;;;15.83;76.32;100716.81;5038718;28;20045;-70
2023/08/28 02:57:53;;;;;;;1.73;0.70;;;;;;;15.83;76.55;100706.28;5033787;28;21148;-70
2023/08/28 03:00:20;;;;;;;1.10;0.52;;;;;;;15.84;76.65;100705.34;5036940;28;20048;-71
2023/08/28 03:02:47;;;;;;;5.47;1.17;;;;;;;15.85;76.30;100699.19;5040621;28;20053;-70
2023/08/28 03:05:15;;;;;;;1.10;0.65;;;;;;;15.87;76.43;100707.00;5033775;28;20507;-69
2023/08/28 03:07:42;;;;;;;1.65;0.60;;;;;;;15.88;76.44;100714.88;5038586;28;20548;-70
2023/08/28 03:10:10;;;;;;;3.20;0.60;;;;;;;15.88;76.40;100714.88;5032736;28;20049;-70
2023/08/28 03:12:37;;;;;;;1.92;0.70;;;;;;;15.87;76.58;100702.59;5037145;28;20055;-70
2023/08/28 03:15:05;;;;;;;1.02;0.70;;;;;;;15.90;76.81;100701.63;5033756;28;20049;-70
2023/08/28 03:17:32;;;;;;;0.98;0.60;;;;;;;15.91;76.81;100701.56;5034047;28;20045;-70
2023/08/28 03:19:59;;;;;;;0.82;0.50;;;;;;;15.91;76.66;100698.94;5028462;28;20049;-70
2023/08/28 03:22:27;;;;;;;1.88;0.65;;;;;;;15.92;76.72;100703.25;5039504;28;20099;-76
2023/08/28 03:24:54;;;;;;;3.65;0.60;;;;;;;15.93;76.80;100702.34;5038718;28;20046;-75
2023/08/28 03:27:22;;;;;;;0.60;0.55;;;;;;;15.93;76.93;100694.44;5038879;28;20801;-75
2023/08/28 03:29:48;;;;;;;2.97;0.70;;;;;;;15.94;76.64;100700.59;5035651;28;20061;-75
2023/08/28 03:32:15;;;;;;;0.60;0.60;;;;;;;15.94;76.78;100709.34;5036030;28;20049;-70
2023/08/28 03:34:42;;;;;;;0.95;0.80;;;;;;;15.94;76.98;100704.06;5038654;28;20045;-70
2023/08/28 03:37:09;;;;;;;0.57;0.55;;;;;;;15.93;76.90;100701.47;5036980;28;20056;-70
2023/08/28 03:39:37;;;;;;;1.65;1.00;;;;;;;15.97;77.20;100695.19;5036917;28;20054;-70
2023/08/28 03:42:04;;;;;;;1.75;0.63;;;;;;;15.98;76.87;100703.94;5034804;28;20416;-70
2023/08/28 03:44:31;;;;;;;2.55;0.80;;;;;;;15.98;76.88;100704.78;5034079;28;20046;-70
2023/08/28 03:46:58;;;;;;;0.50;0.50;;;;;;;16.00;77.13;100696.84;5035265;28;20044;-69
2023/08/28 03:49:26;;;;;;;1.77;0.70;;;;;;;16.01;77.13;100695.91;5035416;28;20476;-70
2023/08/28 03:51:54;;;;;;;2.10;0.70;;;;;;;16.01;77.04;100709.94;5037481;28;20045;-70
2023/08/28 03:54:21;;;;;;;1.58;0.90;;;;;;;16.02;77.24;100711.63;5033490;28;20495;-71
2023/08/28 03:56:50;;;;;;;2.40;0.73;;;;;;;16.00;77.34;100694.19;5037527;28;20048;-70
2023/08/28 03:59:17;;;;;;;1.23;0.57;;;;;;;16.05;77.17;100713.28;5038446;28;20080;-70
2023/08/28 04:01:44;;;;;;;0.60;0.60;;;;;;;16.04;77.20;100703.69;5042018;28;20045;-70
2023/08/28 04:04:12;;;;;;;2.60;0.60;;;;;;;16.06;77.48;100704.47;5033696;28;20599;-70
2023/08/28 04:06:38;;;;;;;2.05;0.70;;;;;;;16.05;77.38;100702.75;5033155;28;20041;-70
2023/08/28 04:09:05;;;;;;;0.85;0.63;;;;;;;16.06;77.55;100696.56;5037986;28;20059;-70
2023/08/28 04:11:32;;;;;;;4.15;1.25;;;;;;;16.08;77.63;100681.53;5029490;28;20045;-70
2023/08/28 04:14:01;;;;;;;1.55;0.73;;;;;;;16.08;77.83;100669.25;5040127;28;20061;-70
2023/08/28 04:16:28;;;;;;;1.33;0.55;;;;;;;16.10;77.98;100663.88;5032474;28;20532;-70
2023/08/28 04:18:55;;;;;;;0.50;0.50;;;;;;;16.10;78.00;100667.38;5034404;28;20522;-70
2023/08/28 04:21:21;;;;;;;1.38;0.93;;;;;;;16.13;77.94;100655.84;5034351;28;20234;-70
2023/08/28 04:23:48;;;;;;;0.95;0.75;;;;;;;16.12;77.80;100656.78;5036703;28;20045;-70
2023/08/28 04:26:15;;;;;;;5.05;0.80;;;;;;;16.14;77.77;100665.47;5033921;28;20041;-75
2023/08/28 04:28:42;;;;;;;1.77;0.98;;;;;;;16.14;78.02;100668.97;5040353;28;20459;-76
2023/08/28 04:31:11;;;;;;;2.45;1.20;;;;;;;16.16;77.66;100655.72;5035636;28;20037;-76
2023/08/28 04:33:38;;;;;;;1.33;0.80;;;;;;;16.18;77.89;100643.31;5031306;28;20045;-74
2023/08/28 04:36:05;;;;;;;4.22;0.70;;;;;;;16.19;78.01;100634.50;5037063;28;20052;-73
2023/08/28 04:38:32;;;;;;;1.85;0.70;;;;;;;16.19;78.06;100635.38;5032728;28;20045;-73
2023/08/28 04:40:59;;;;;;;2.35;0.80;;;;;;;16.21;78.11;100632.66;5029808;28;20048;-73
2023/08/28 04:43:26;;;;;;;1.70;0.60;;;;;;;16.22;78.34;100622.97;5036874;28;20107;-75
2023/08/28 04:45:53;;;;;;;2.03;0.80;;;;;;;16.24;78.12;100621.97;5036763;28;20046;-77
2023/08/28 04:48:21;;;;;;;3.33;0.60;;;;;;;16.23;78.07;100612.38;5038421;28;20045;-79
2023/08/28 04:50:48;;;;;;;3.85;0.90;;;;;;;16.26;78.16;100619.28;5014731;28;20472;-77
2023/08/28 04:53:15;;;;;;;1.42;0.82;;;;;;;16.26;78.32;100609.59;5035081;28;20077;-74
2023/08/28 04:55:42;;;;;;;2.65;0.60;;;;;;;16.27;78.34;100619.19;5034920;28;20037;-74
2023/08/28 04:58:09;;;;;;;1.83;0.80;;;;;;;16.28;78.27;100627.94;5033401;28;20522;-75
2023/08/28 05:00:36;;;;;;;0.70;0.60;;;;;;;16.29;78.18;100619.16;5039893;28;20047;-75
2023/08/28 05:03:03;;;;;;;3.72;0.90;;;;;;;16.30;78.17;100615.56;5033991;28;20049;-76
2023/08/28 05:05:32;;;;;;;0.93;0.70;;;;;;;16.29;78.26;100614.72;5039481;28;20055;-78
2023/08/28 05:07:59;;;;;;;3.15;0.73;;;;;;;16.32;78.12;100617.22;5034603;28;20049;-78
2023/08/28 05:10:26;;;;;;;1.90;0.60;;;;;;;16.34;78.18;100606.63;5042293;28;20106;-78
2023/08/28 05:12:52;;;;;;;4.32;0.60;;;;;;;16.31;78.50;100593.56;5032725;28;20132;-78
2023/08/28 05:15:19;;;;;;;1.25;0.60;;;;;;;16.35;78.50;100587.22;5041390;28;20049;-77
2023/08/28 05:17:47;;;;;;;1.70;0.60;;;;;;;16.29;78.87;100582.25;5034811;28;20048;-77
2023/08/28 05:20:14;;;;;;;1.25;0.63;;;;;;;16.33;78.47;100587.28;5032898;28;20040;-78
2023/08/28 05:22:42;;;;;;;3.80;0.90;;;;;;;16.38;78.71;100595.84;5034534;28;20048;-78
2023/08/28 05:25:09;;;;;;;4.53;0.63;;;;;;;16.39;78.83;100599.34;5040532;28;20048;-78
2023/08/28 05:27:36;;;;;;;1.58;0.70;;;;;;;16.35;78.50;100584.59;5042892;28;20053;-77
2023/08/28 05:30:04;;;;;;;4.25;0.70;;;;;;;16.39;78.41;100597.56;5032113;28;20061;-77
2023/08/28 05:32:31;;;;;;;2.65;0.60;;;;;;;16.42;78.73;100593.91;5035613;28;20534;-77
2023/08/28 05:34:58;;;;;;;2.05;1.42;;;;;;;16.44;78.73;100596.50;5031762;28;20055;-77
2023/08/28 05:37:25;;;;;;;1.33;0.60;;;;;;;16.44;78.56;100589.44;5040611;28;20036;-77
2023/08/28 05:39:54;;;;;;;1.70;0.60;;;;;;;16.35;78.61;100566.13;5033739;28;20057;-77
2023/08/28 05:42:21;;;;;;;2.90;0.60;;;;;;;16.39;78.35;100579.13;5029903;28;20419;-71
2023/08/28 05:44:48;;;;;;;2.03;0.60;;;;;;;16.45;78.60;100580.63;5017086;28;20049;-71
2023/08/28 05:47:15;;;;;;;2.95;0.60;;;;;;;16.49;78.72;100586.59;5032198;28;20053;-71
2023/08/28 05:49:42;;;;;;;3.90;0.70;;;;;;;16.50;78.45;100599.69;5033777;28;20504;-72
2023/08/28 05:52:09;;;;;;;5.82;0.63;;;;;;;16.51;78.55;100596.16;5034083;28;20507;-71
2023/08/28 05:54:36;;;;;;;2.45;0.50;;;;;;;16.52;78.35;100600.50;5035073;28;20496;-70
2023/08/28 05:57:04;;;;;;;4.65;0.52;;;;;;;16.53;78.28;100585.53;5029156;28;20049;-72
2023/08/28 05:59:31;;;;;;;0.90;0.43;;;;;;;16.55;78.15;100591.59;5032029;28;20052;-71
2023/08/28 06:01:59;;;;;;;1.00;0.40;;;;;;;16.55;77.84;100591.59;5034295;28;20420;-72
2023/08/28 06:04:26;;;;;;;0.50;0.40;;;;;;;16.56;77.54;100601.19;5032709;28;20033;-73
2023/08/28 06:06:53;;;;;;;2.25;0.40;;;;;;;16.56;77.34;100601.19;5036435;28;20052;-72
2023/08/28 06:09:19;;;;;;;0.57;0.40;;;;;;;16.56;76.96;100603.84;5032949;28;20049;-72
2023/08/28 06:11:46;;;;;;;0.50;0.40;;;;;;;16.55;76.79;100604.78;5033061;28;20057;-72
2023/08/28 06:14:15;;;;;;;0.50;0.30;;;;;;;16.54;76.26;100598.66;5032003;28;20055;-74
2023/08/28 06:16:42;;;;;;;0.40;0.30;;;;;;;16.54;76.18;100603.06;5026558;28;20041;-73
2023/08/28 06:19:08;;;;;;;0.90;0.35;;;;;;;16.52;75.89;100595.22;5026888;28;20055;-74
2023/08/28 06:21:35;;;;;;;0.52;0.50;;;;;;;16.53;75.98;100590.78;5032123;28;20052;-74
2023/08/28 06:24:02;;;;;;;1.58;0.30;;;;;;;16.53;75.74;100590.78;5032393;28;20053;-74
2023/08/28 06:26:29;;;;;;;4.13;0.40;;;;;;;16.52;75.68;100597.00;5032611;28;20037;-73
2023/08/28 06:28:56;;;;;;;5.00;0.88;;;;;;;16.51;75.79;100597.94;5030345;28;20053;-73
2023/08/28 06:31:24;;;;;;;0.32;0.30;;;;;;;16.51;75.83;100597.94;5039045;28;20045;-74
2023/08/28 06:33:51;;;;;;;1.45;0.30;;;;;;;16.46;75.72;100589.38;5032019;28;20056;-75
2023/08/28 06:36:18;;;;;;;0.85;0.30;;;;;;;16.49;75.93;100589.25;5034247;28;20049;-74
2023/08/28 06:38:46;;;;;;;0.68;0.20;;;;;;;16.48;75.91;100598.94;5032413;28;20955;-75
2023/08/28 06:41:13;;;;;;;2.13;0.45;;;;;;;16.48;75.89;100593.66;5035589;28;20049;-75
2023/08/28 06:43:40;;;;;;;1.08;0.20;;;;;;;16.48;75.88;100595.41;5029035;28;20658;-75
2023/08/28 06:46:07;;;;;;;2.65;0.32;;;;;;;16.49;76.18;100599.78;5032946;28;20411;-74
2023/08/28 06:48:35;;;;;;;2.83;0.40;;;;;;;16.49;75.96;100600.63;5030589;28;20053;-73
2023/08/28 06:51:02;;;;;;;2.75;0.30;;;;;;;16.49;76.01;100603.28;5034172;28;20058;-74
2023/08/28 06:53:30;;;;;;;0.40;0.30;;;;;;;16.28;76.11;100564.69;5035635;28;20059;-73
2023/08/28 06:55:57;;;;;;;1.55;0.30;;;;;;;16.46;76.29;100594.66;5035282;28;20049;-75
2023/08/28 06:58:24;;;;;;;2.25;0.20;;;;;;;16.47;76.13;100591.09;5034658;28;20052;-74
2023/08/28 07:00:51;;;;;;;1.95;0.50;;;;;;;16.48;75.90;100598.94;5031621;28;20049;-73
2023/08/28 07:03:18;;;;;;;2.35;0.52;;;;;;;16.44;76.18;100585.94;5035402;28;20053;-73
2023/08/28 07:05:46;;;;;;;1.38;0.40;;;;;;;16.46;75.78;100590.22;5033131;28;20049;-75
2023/08/28 07:08:13;;;;;;;3.50;1.35;;;;;;;16.47;76.39;100588.44;5029824;28;20037;-74
2023/08/28 07:10:40;;;;;;;0.85;0.50;;;;;;;16.44;76.31;100576.25;5029967;28;20041;-74
2023/08/28 07:13:07;;;;;;;3.08;0.40;;;;;;;16.45;76.25;100574.47;5027594;28;20057;-76
2023/08/28 07:15:57;;;;;;;3.70;0.40;;;;;;;16.47;76.13;100572.63;5032388;28;20045;-75
2023/08/28 07:18:24;;;;;;;0.80;0.40;;;;;;;16.46;76.21;100566.50;5029589;28;20049;-73
2023/08/28 07:20:52;;;;;;;0.65;0.45;;;;;;;16.46;76.38;100573.56;5028500;28;20052;-73
2023/08/28 07:23:19;;;;;;;1.88;0.45;;;;;;;16.47;76.43;100575.25;5032248;28;20045;-74
2023/08/28 07:25:46;;;;;;;1.77;0.60;;;;;;;16.46;76.39;100579.69;5037140;28;20075;-77
2023/08/28 07:28:13;;;;;;;0.80;0.65;;;;;;;16.47;76.21;100572.63;5038406;28;20051;-77
2023/08/28 07:30:42;;;;;;;1.65;0.55;;;;;;;16.48;76.41;100571.69;5032855;28;20060;-78
2023/08/28 07:33:09;;;;;;;1.77;0.43;;;;;;;16.40;76.28;100567.63;5040083;28;20131;-76
2023/08/28 07:35:36;;;;;;;1.08;0.40;;;;;;;16.46;76.55;100590.22;5034662;28;20045;-78
2023/08/28 07:38:07;;;;;;;1.40;0.50;;;;;;;16.30;76.29;100553.16;5041759;28;20045;-80
2023/08/28 07:40:34;;;;;;;2.50;0.45;;;;;;;16.46;76.27;100569.13;5036308;28;20048;-79
2023/08/28 07:43:02;;;;;;;2.55;0.50;;;;;;;16.47;76.31;100564.72;5037236;28;20140;-75
2023/08/28 07:45:29;;;;;;;4.57;0.60;;;;;;;16.46;75.93;100571.78;5035925;28;20052;-77
2023/08/28 07:47:56;;;;;;;1.10;0.50;;;;;;;16.39;76.03;100550.13;5045244;28;20053;-78
2023/08/28 07:50:23;;;;;;;1.15;0.50;;;;;;;16.47;76.23;100567.34;5037934;28;20053;-76
2023/08/28 07:52:50;;;;;;;1.00;0.40;;;;;;;16.47;76.16;100565.56;5043784;28;20053;-78
2023/08/28 07:55:19;;;;;;;1.40;0.40;;;;;;;16.45;76.29;100562.16;5039664;28;20067;-77
2023/08/28 07:57:46;;;;;;;2.00;0.45;;;;;;;16.48;76.13;100569.06;5038864;28;20049;-77
2023/08/28 08:00:16;;;;;;;1.92;0.40;;;;;;;16.49;76.38;100568.16;5034254;28;20133;-77
2023/08/28 08:02:46;;;;;;;0.55;0.30;;;;;;;16.40;76.04;100565.00;5017973;28;20045;-83
2023/08/28 08:05:13;;;;;;;1.05;0.95;;;;;;;16.48;75.90;100576.97;5041122;28;20453;-81
2023/08/28 08:07:40;;;;;;;0.75;0.40;;;;;;;16.47;75.82;100576.13;5043670;28;20045;-83
2023/08/28 08:10:09;;;;;;;0.80;0.40;;;;;;;16.45;75.98;100561.28;5046914;28;20053;-87
2023/08/28 08:12:38;;;;;;;1.65;0.30;;;;;;;16.45;75.44;100569.19;5042940;28;20426;-74
2023/08/28 08:15:06;;;;;;;1.23;0.50;;;;;;;16.45;75.64;100563.91;5035465;28;20045;-77
2023/08/28 08:17:34;;;;;;;1.80;0.77;;;;;;;16.44;75.79;100565.72;5034823;28;20490;-77
2023/08/28 08:20:00;;;;;;;4.18;0.55;;;;;;;16.44;75.52;100560.44;5035488;28;20060;-77
2023/08/28 08:22:27;;;;;;;1.67;0.32;;;;;;;16.46;75.96;100570.94;5039118;28;20531;-78
2023/08/28 08:24:54;;;;;;;2.72;0.45;;;;;;;16.47;75.76;100570.00;5040112;28;20384;-77
2023/08/28 08:27:21;;;;;;;0.50;0.40;;;;;;;16.47;75.71;100560.28;5047039;28;20594;-77
2023/08/28 08:29:49;;;;;;;2.75;0.30;;;;;;;16.48;75.92;100559.38;5037495;28;20049;-76
2023/08/28 08:32:17;;;;;;;0.93;0.30;;;;;;;16.50;76.12;100557.50;5032985;28;20530;-76
2023/08/28 08:34:44;;;;;;;2.83;0.30;;;;;;;16.50;76.15;100548.75;5037427;28;20049;-77
2023/08/28 08:37:11;;;;;;;0.80;0.40;;;;;;;16.51;76.14;100558.41;5036521;28;20492;-74
2023/08/28 08:39:38;;;;;;;2.05;0.50;;;;;;;16.51;75.96;100561.03;5035525;28;20466;-75
2023/08/28 08:42:06;;;;;;;0.88;0.38;;;;;;;16.53;76.39;100564.44;5033646;28;20044;-75
2023/08/28 08:44:33;;;;;;;3.95;0.60;;;;;;;16.54;76.43;100567.00;5029701;28;20046;-76
2023/08/28 08:47:03;;;;;;;0.93;0.60;;;;;;;16.56;76.31;100553.72;5032824;28;20058;-75
2023/08/28 08:49:32;;;;;;;1.58;0.40;;;;;;;16.57;76.19;100561.59;5036908;28;20042;-76
2023/08/28 08:52:05;;;;;;;2.72;0.40;;;;;;;16.58;76.41;100546.63;5035092;28;20056;-76
2023/08/28 08:54:40;;;;;;;4.78;0.45;;;;;;;16.52;76.59;100531.09;5041429;28;20132;-76
2023/08/28 08:57:10;;;;;;;0.77;0.50;;;;;;;16.61;76.46;100546.47;5041093;28;20065;-75
2023/08/28 08:59:37;;;;;;;5.85;0.70;;;;;;;16.61;76.54;100543.84;5035673;28;20063;-75
2023/08/28 09:02:05;;;;;;;1.02;0.47;;;;;;;16.63;76.26;100540.19;5042446;28;20047;-74
2023/08/28 09:04:34;;;;;;;4.68;0.60;;;;;;;16.66;76.28;100539.19;5033273;28;20053;-74
2023/08/28 09:07:04;;;;;;;1.42;0.40;;;;;;;16.68;76.65;100534.72;5033003;28;20053;-76
2023/08/28 09:09:32;;;;;;;2.80;1.40;;;;;;;16.69;76.46;100527.66;5037513;28;20061;-73
2023/08/28 09:11:59;;;;;;;1.40;0.40;;;;;;;16.57;76.56;100508.84;5033269;28;20099;-89
2023/08/28 09:14:28;;;;;;;2.65;0.43;;;;;;;16.77;76.96;100536.09;5042210;28;20128;-82
2023/08/28 09:16:55;;;;;;;1.80;0.50;;;;;;;16.80;77.36;100539.44;5036824;28;20100;-82
2023/08/28 09:19:25;;;;;;;0.60;0.40;;;;;;;16.83;77.20;100543.72;5046638;28;20046;-78
2023/08/28 09:21:52;;;;;;;1.55;0.30;;;;;;;16.62;76.79;100500.69;5044950;28;20550;-85
2023/08/28 09:24:24;;;;;;;0.85;0.40;;;;;;;16.89;76.81;100540.75;5044372;28;20484;-84
2023/08/28 09:26:53;;;;;;;0.95;0.30;;;;;;;16.94;76.43;100546.69;5044720;28;20049;-87
2023/08/28 09:29:23;;;;;;;0.88;0.40;;;;;;;16.95;76.02;100536.97;5041006;28;20048;-86
2023/08/28 09:31:51;;;;;;;5.40;0.30;;;;;;;16.92;75.92;100523.94;5041188;28;20053;-80
2023/08/28 09:34:21;;;;;;;1.10;0.30;;;;;;;17.05;76.09;100539.09;5039592;28;20484;-79
2023/08/28 09:36:49;;;;;;;1.35;0.22;;;;;;;17.10;75.70;100544.13;5037041;28;20111;-81
2023/08/28 09:39:16;;;;;;;0.75;0.30;;;;;;;17.14;75.05;100548.34;5037786;28;20128;-80
2023/08/28 09:41:44;;;;;;;1.33;0.30;;;;;;;17.19;74.96;100545.47;5040209;28;20045;-78
2023/08/28 09:44:12;;;;;;;0.40;0.20;;;;;;;17.23;74.69;100550.53;5049201;28;20479;-84
2023/08/28 09:46:39;;;;;;;2.03;0.25;;;;;;;17.26;75.08;100545.09;5036724;28;20064;-91
2023/08/28 09:49:07;;;;;;;0.25;0.20;;;;;;;17.32;74.61;100543.94;5043526;28;20045;-81
2023/08/28 09:51:41;;;;;;;0.75;0.20;;;;;;;17.37;73.93;100534.00;5039595;28;20049;-82
2023/08/28 09:54:11;;;;;;;0.73;0.20;;;;;;;17.41;73.95;100524.13;5043466;28;20048;-87
2023/08/28 09:56:38;;;;;;;0.50;0.20;;;;;;;17.45;74.01;100525.69;5046759;28;20060;-92
2023/08/28 09:59:06;;;;;;;2.40;0.20;;;;;;;17.49;74.57;100525.44;5046915;28;20400;-91
2023/08/28 10:01:34;;;;;;;0.32;0.20;;;;;;;17.52;73.66;100514.72;5035367;28;20112;-84
2023/08/28 10:04:05;;;;;;;1.70;0.40;;;;;;;17.61;73.60;100523.09;5045296;28;20049;-84
2023/08/28 10:06:35;;;;;;;1.00;0.20;;;;;;;17.63;73.55;100515.97;5038830;28;20053;-85
2023/08/28 10:09:04;;;;;;;1.98;0.32;;;;;;;17.70;73.39;100515.56;5049911;28;20052;-79
2023/08/28 10:11:38;;;;;;;3.70;1.27;;;;;;;17.76;73.04;100517.03;5037955;28;20051;-80
2023/08/28 10:14:07;;;;;;;1.45;0.17;;;;;;;17.77;72.47;100497.59;5038453;28;20056;-81
2023/08/28 10:16:37;;;;;;;1.40;0.20;;;;;;;17.83;71.44;100499.94;5048048;28;20041;-80
2023/08/28 10:19:16;;;;;;;0.32;0.20;;;;;;;17.88;71.16;100499.72;5047064;28;20045;-80
2023/08/28 10:21:44;;;;;;;1.98;0.20;;;;;;;17.90;71.25;100498.69;5038805;28;20062;-76
2023/08/28 10:24:13;;;;;;;0.30;0.20;;;;;;;17.94;70.78;100491.47;5034106;28;20886;-78
2023/08/28 10:26:44;;;;;;;0.55;0.20;;;;;;;17.98;70.92;100500.91;5041420;28;20048;-76
2023/08/28 10:29:12;;;;;;;0.38;0.20;;;;;;;18.00;70.75;100498.19;5033079;28;20053;-76
2023/08/28 10:31:40;;;;;;;2.20;0.20;;;;;;;18.01;71.07;100490.19;4998799;28;20053;-80
2023/08/28 10:34:08;;;;;;;1.52;0.30;;;;;;;18.08;70.45;100499.50;5044241;28;20059;-80
2023/08/28 10:36:36;;;;;;;0.30;0.10;;;;;;;18.07;70.89;100495.16;5042436;28;20041;-80
2023/08/28 10:39:04;;;;;;;0.47;0.20;;;;;;;18.14;68.61;100493.88;5048219;28;20532;-81
2023/08/28 10:41:33;;;;;;;0.20;0.20;;;;;;;18.15;69.12;100481.50;5043263;28;20484;-78
2023/08/28 10:44:03;;;;;;;1.13;0.20;;;;;;;18.19;68.51;100489.19;5040470;28;20696;-86
2023/08/28 10:46:31;;;;;;;0.20;0.10;;;;;;;18.22;68.23;100490.81;5037068;28;20463;-79
2023/08/28 10:48:59;;;;;;;0.50;0.20;;;;;;;18.25;68.75;100489.81;5041050;28;20056;-83
2023/08/28 10:51:32;;;;;;;2.13;0.20;;;;;;;18.18;68.17;100473.41;5044062;28;20053;-82
2023/08/28 10:54:04;;;;;;;0.55;0.20;;;;;;;18.31;68.13;100492.94;5023280;28;21746;-87
2023/08/28 10:56:33;;;;;;;0.52;0.20;;;;;;;18.23;67.70;100473.16;5043883;28;20055;-89
2023/08/28 10:59:24;;;;;;;2.38;0.20;;;;;;;18.37;67.55;100481.19;5041276;28;20045;-81
2023/08/28 11:01:53;;;;;;;0.25;0.10;;;;;;;18.31;67.32;100470.94;5041414;28;20049;-86
2023/08/28 11:04:21;;;;;;;1.10;0.10;;;;;;;18.41;67.11;100482.69;5041454;28;20057;-88
2023/08/28 11:06:48;;;;;;;0.73;0.20;;;;;;;18.24;66.80;100459.84;5041295;28;20051;-86
2023/08/28 11:09:34;;;;;;;0.20;0.10;;;;;;;18.44;66.50;100482.53;5035464;28;20120;-94
2023/08/28 11:12:25;;;;;;;0.40;0.20;;;;;;;18.46;67.10;100493.88;5044919;28;20059;-76
2023/08/28 11:15:06;;;;;;;0.73;0.20;;;;;;;18.42;66.20;100469.41;5033594;28;20412;-78
2023/08/28 11:17:34;;;;;;;1.52;0.20;;;;;;;18.48;67.02;100484.06;5045780;28;20041;-75
2023/08/28 11:20:10;;;;;;;1.83;0.10;;;;;;;18.51;67.35;100480.41;5041512;28;20045;-76
2023/08/28 11:22:39;;;;;;;2.15;0.20;;;;;;;18.51;67.18;100481.25;5035686;28;20049;-78
2023/08/28 11:25:08;;;;;;;0.30;0.20;;;;;;;18.53;67.54;100487.31;5041478;28;20041;-74
2023/08/28 11:27:43;;;;;;;0.38;0.10;;;;;;;18.56;67.47;100487.16;5032634;28;20043;-77
2023/08/28 11:30:13;;;;;;;0.57;0.20;;;;;;;18.57;67.30;100478.25;5040528;28;20049;-75